Time;durP1;ratioP1;P1;durP2;ratioP2;P2;SDS_P1;SDS_P2;PMS_P1;PMS_P2;Temp;Humidity;BMP_temperature;BMP_pressure;BME280_temperature;BME280_humidity;BME280_pressure;Samples;Min_cycle;Max_cycle;Signal;HPM_P1;HPM_P2
2022/05/03 00:02:20;;;;;;;4.95;4.45;;;15.30;96.70;;;;;;4923966;29;20059;-86
2022/05/03 00:05:01;;;;;;;4.90;4.32;;;15.20;96.70;;;;;;4920455;29;20052;-86
2022/05/03 00:07:36;;;;;;;5.60;5.00;;;15.20;96.70;;;;;;4913727;29;20715;-86
2022/05/03 00:10:08;;;;;;;5.10;4.60;;;15.10;96.70;;;;;;4916861;29;20048;-86
2022/05/03 00:12:41;;;;;;;4.35;3.95;;;15.10;96.70;;;;;;4920334;29;20141;-86
2022/05/03 00:15:11;;;;;;;5.07;4.57;;;15.00;96.70;;;;;;4917629;29;20078;-85
2022/05/03 00:17:43;;;;;;;5.53;4.70;;;15.00;96.70;;;;;;4941380;28;20508;-86
2022/05/03 00:20:14;;;;;;;4.70;4.20;;;15.00;96.70;;;;;;4932567;29;20068;-86
2022/05/03 00:22:43;;;;;;;5.20;4.32;;;15.00;96.70;;;;;;4930820;29;20173;-86
2022/05/03 00:25:11;;;;;;;5.10;4.60;;;15.00;96.70;;;;;;4913901;29;20067;-86
2022/05/03 00:27:40;;;;;;;5.28;4.32;;;14.90;96.70;;;;;;4913448;29;20513;-86
2022/05/03 00:30:09;;;;;;;5.05;4.47;;;14.90;96.70;;;;;;4921944;29;20529;-86
2022/05/03 00:32:39;;;;;;;5.18;4.43;;;14.90;96.70;;;;;;4929005;29;20055;-86
2022/05/03 00:35:11;;;;;;;5.10;4.60;;;14.90;96.70;;;;;;4921653;29;20047;-86
2022/05/03 00:37:41;;;;;;;6.10;4.78;;;14.90;96.70;;;;;;4934983;29;20107;-84
2022/05/03 00:40:11;;;;;;;5.75;4.50;;;14.90;96.70;;;;;;4931702;29;20055;-84
2022/05/03 00:42:46;;;;;;;5.00;4.50;;;14.90;96.70;;;;;;4943882;29;20067;-84
2022/05/03 00:45:23;;;;;;;4.90;4.47;;;15.00;96.70;;;;;;4944070;29;20047;-83
2022/05/03 00:47:53;;;;;;;4.75;4.25;;;14.90;96.70;;;;;;4917866;29;20059;-84
2022/05/03 00:50:33;;;;;;;4.55;4.03;;;14.90;96.70;;;;;;4925220;29;20070;-83
2022/05/03 00:53:14;;;;;;;5.18;4.50;;;14.80;96.70;;;;;;4938131;29;20059;-84
2022/05/03 00:56:19;;;;;;;4.60;4.20;;;14.60;96.70;;;;;;4922655;29;20054;-84
2022/05/03 00:59:02;;;;;;;4.65;4.22;;;14.50;96.70;;;;;;4923707;29;20092;-84
2022/05/03 01:01:41;;;;;;;5.03;4.43;;;14.50;96.70;;;;;;4924837;29;20382;-83
2022/05/03 01:04:21;;;;;;;5.88;4.63;;;14.50;96.70;;;;;;4941637;29;20047;-84
2022/05/03 01:06:55;;;;;;;4.80;4.40;;;14.50;96.70;;;;;;4907265;29;20044;-83
2022/05/03 01:09:36;;;;;;;5.15;4.65;;;14.40;96.70;;;;;;4915706;29;20119;-87
2022/05/03 01:12:20;;;;;;;5.82;5.25;;;14.40;96.70;;;;;;4940836;29;20160;-88
2022/05/03 01:15:09;;;;;;;5.72;4.82;;;14.30;96.70;;;;;;4924668;29;20048;-91
2022/05/03 01:17:43;;;;;;;6.15;4.80;;;14.40;96.70;;;;;;4938729;29;20051;-90
2022/05/03 01:20:16;;;;;;;5.38;4.88;;;14.40;96.70;;;;;;4930258;29;20078;-89
2022/05/03 01:23:17;;;;;;;5.97;5.38;;;14.60;96.70;;;;;;4925934;29;20375;-90
2022/05/03 01:26:01;;;;;;;5.13;4.63;;;14.30;96.70;;;;;;4930834;29;20050;-90
2022/05/03 01:28:31;;;;;;;4.70;4.20;;;14.30;96.70;;;;;;4934418;29;20067;-90
2022/05/03 01:31:09;;;;;;;5.15;4.65;;;14.20;96.70;;;;;;4918007;29;20048;-90
2022/05/03 01:33:40;;;;;;;6.20;4.60;;;14.30;96.70;;;;;;4930201;29;20050;-90
2022/05/03 01:36:10;;;;;;;4.97;4.47;;;14.20;96.70;;;;;;4936347;29;20039;-90
2022/05/03 01:39:01;;;;;;;5.55;4.72;;;14.20;96.70;;;;;;4925768;29;20075;-90
2022/05/03 01:41:41;;;;;;;4.88;4.13;;;14.00;96.70;;;;;;4935072;29;20149;-90
2022/05/03 01:44:13;;;;;;;5.95;4.32;;;14.00;96.70;;;;;;4927538;29;20055;-91
2022/05/03 01:46:43;;;;;;;4.40;3.88;;;14.10;96.70;;;;;;4922881;29;20062;-88
2022/05/03 01:52:29;;;;;;;4.72;4.30;;;14.00;96.70;;;;;;4922385;29;20056;-91
2022/05/03 01:55:10;;;;;;;4.60;4.07;;;14.00;96.70;;;;;;4930806;29;20047;-84
2022/05/03 01:57:54;;;;;;;4.80;4.30;;;13.90;96.70;;;;;;4929384;29;20094;-85
2022/05/03 02:00:23;;;;;;;4.68;4.22;;;13.80;96.70;;;;;;4920126;29;20085;-85
2022/05/03 02:03:03;;;;;;;7.57;4.43;;;13.80;96.70;;;;;;4928803;29;20039;-85
2022/05/03 02:05:59;;;;;;;4.80;4.40;;;13.80;96.70;;;;;;4943111;28;20565;-85
2022/05/03 02:08:38;;;;;;;5.22;4.65;;;14.00;96.70;;;;;;4932909;29;20051;-85
2022/05/03 02:11:29;;;;;;;4.85;4.20;;;14.00;96.70;;;;;;4935641;28;20476;-85
2022/05/03 02:17:01;;;;;;;7.15;4.63;;;14.00;96.70;;;;;;4946274;28;20047;-85
2022/05/03 02:19:47;;;;;;;5.32;3.97;;;13.90;96.70;;;;;;4948902;28;20047;-85
2022/05/03 02:22:41;;;;;;;4.60;4.20;;;13.90;96.70;;;;;;4949954;28;20051;-84
2022/05/03 02:25:20;;;;;;;4.40;4.00;;;13.90;96.70;;;;;;4905232;29;20123;-84
2022/05/03 02:27:57;;;;;;;5.10;4.05;;;13.90;96.70;;;;;;4930601;29;20047;-85
2022/05/03 02:30:28;;;;;;;5.78;4.30;;;13.90;96.70;;;;;;4924172;29;20051;-85
2022/05/03 02:33:06;;;;;;;4.80;3.83;;;13.80;96.70;;;;;;4947768;28;20051;-84
2022/05/03 02:35:38;;;;;;;4.82;4.38;;;13.70;96.70;;;;;;4930183;29;20082;-84
2022/05/03 02:38:07;;;;;;;8.07;4.18;;;13.80;96.70;;;;;;4925840;29;20071;-85
2022/05/03 02:40:46;;;;;;;5.53;4.60;;;13.80;96.70;;;;;;4932833;29;20054;-84
2022/05/03 02:43:16;;;;;;;5.03;4.53;;;13.80;96.70;;;;;;4923485;29;21119;-85
2022/05/03 02:45:54;;;;;;;5.28;4.50;;;13.90;96.70;;;;;;4925363;29;20070;-85
2022/05/03 02:48:31;;;;;;;6.30;4.72;;;13.90;96.70;;;;;;4929809;29;20075;-84
2022/05/03 02:51:04;;;;;;;6.32;4.70;;;13.80;96.70;;;;;;4937687;29;20047;-85
2022/05/03 02:53:42;;;;;;;5.15;4.63;;;13.80;96.70;;;;;;4924964;28;20202;-85
2022/05/03 02:56:48;;;;;;;6.82;4.78;;;13.80;96.70;;;;;;4921763;29;20043;-85
2022/05/03 03:01:47;;;;;;;7.05;5.13;;;13.70;96.70;;;;;;4934355;29;20055;-85
2022/05/03 03:02:21;;;;;;;6.00;4.70;;;13.80;96.70;;;;;;4926255;28;20142;-85
2022/05/03 03:04:58;;;;;;;5.97;4.65;;;13.60;96.70;;;;;;4920520;29;20052;-84
2022/05/03 03:07:41;;;;;;;5.90;5.13;;;13.50;96.70;;;;;;4929787;29;20557;-84
2022/05/03 03:10:13;;;;;;;6.43;5.05;;;13.60;96.70;;;;;;4916541;29;20111;-85
2022/05/03 03:12:53;;;;;;;6.30;5.30;;;13.50;96.70;;;;;;4925291;29;20051;-84
2022/05/03 03:15:27;;;;;;;5.97;4.82;;;13.50;96.70;;;;;;4914121;29;20043;-84
2022/05/03 03:17:58;;;;;;;7.57;5.20;;;13.40;96.70;;;;;;4925215;29;20050;-85
2022/05/03 03:20:28;;;;;;;5.20;4.70;;;13.40;96.70;;;;;;4919901;29;20059;-85
2022/05/03 03:22:58;;;;;;;6.97;5.22;;;13.60;96.70;;;;;;4933237;29;20414;-85
2022/05/03 03:25:26;;;;;;;6.55;5.10;;;13.60;96.70;;;;;;4914194;29;20051;-85
2022/05/03 03:27:56;;;;;;;6.82;4.80;;;13.50;96.70;;;;;;4926876;29;20047;-85
2022/05/03 03:30:24;;;;;;;6.63;5.28;;;13.40;96.70;;;;;;4927941;29;20051;-84
2022/05/03 03:32:57;;;;;;;5.60;4.75;;;13.30;96.70;;;;;;4924311;29;20035;-84
2022/05/03 03:35:26;;;;;;;8.02;4.93;;;13.30;96.70;;;;;;4934147;29;20713;-85
2022/05/03 03:37:58;;;;;;;7.13;5.18;;;13.30;96.70;;;;;;4911837;29;20558;-85
2022/05/03 03:40:28;;;;;;;5.32;4.70;;;13.20;96.70;;;;;;4895198;29;20484;-85
2022/05/03 03:42:57;;;;;;;5.75;4.47;;;13.20;96.70;;;;;;4908550;29;20134;-84
2022/05/03 03:45:25;;;;;;;5.60;5.00;;;13.20;96.70;;;;;;4911951;29;20048;-84
2022/05/03 03:47:55;;;;;;;7.50;5.30;;;13.20;96.70;;;;;;4906573;29;20058;-84
2022/05/03 03:50:26;;;;;;;6.57;4.97;;;13.20;96.70;;;;;;4904984;29;20075;-84
2022/05/03 03:52:55;;;;;;;7.03;5.00;;;13.10;96.70;;;;;;4914136;29;20052;-84
2022/05/03 03:55:24;;;;;;;6.00;4.70;;;13.10;96.70;;;;;;4911239;29;20518;-84
2022/05/03 03:57:56;;;;;;;5.22;4.55;;;13.00;96.70;;;;;;4910525;29;20055;-91
2022/05/03 04:00:25;;;;;;;5.97;4.80;;;12.90;96.70;;;;;;4922027;29;20052;-87
2022/05/03 04:02:53;;;;;;;5.10;4.10;;;13.00;96.70;;;;;;4926162;29;20886;-87
2022/05/03 04:05:23;;;;;;;6.40;4.80;;;13.00;96.70;;;;;;4913741;29;21606;-87
2022/05/03 04:07:51;;;;;;;8.90;5.85;;;13.10;96.70;;;;;;4908771;29;20101;-87
2022/05/03 04:10:32;;;;;;;9.55;6.10;;;13.20;96.70;;;;;;4926162;29;20697;-88
2022/05/03 04:13:02;;;;;;;11.70;6.55;;;13.20;96.70;;;;;;4895763;29;20044;-88
2022/05/03 04:15:33;;;;;;;8.95;6.30;;;13.20;96.70;;;;;;4903384;29;20762;-87
2022/05/03 04:18:06;;;;;;;7.70;6.25;;;13.30;96.70;;;;;;4898108;29;20052;-87
2022/05/03 04:20:35;;;;;;;8.82;6.28;;;13.20;96.70;;;;;;4913547;29;20047;-88
2022/05/03 04:23:03;;;;;;;7.80;6.28;;;13.30;96.70;;;;;;4891795;29;20602;-88
2022/05/03 04:25:32;;;;;;;36.00;24.48;;;13.40;96.70;;;;;;4910707;29;20592;-88
2022/05/03 04:28:02;;;;;;;69.53;44.10;;;13.30;96.70;;;;;;4925289;29;20051;-88
2022/05/03 04:30:31;;;;;;;61.17;38.10;;;13.30;96.70;;;;;;4891764;29;20052;-87
2022/05/03 04:32:59;;;;;;;49.13;31.08;;;13.20;96.70;;;;;;4933161;29;20048;-88
2022/05/03 04:35:27;;;;;;;56.33;34.72;;;13.30;96.70;;;;;;4930256;29;20059;-87
2022/05/03 04:37:56;;;;;;;77.05;46.80;;;13.30;96.70;;;;;;4917816;29;20048;-88
2022/05/03 04:40:24;;;;;;;79.18;48.40;;;13.30;96.70;;;;;;4945334;29;20070;-88
2022/05/03 04:42:57;;;;;;;51.78;31.85;;;13.30;96.70;;;;;;4931966;29;20043;-88
2022/05/03 04:45:30;;;;;;;55.38;34.53;;;13.20;96.70;;;;;;4928035;29;20054;-88
2022/05/03 04:47:59;;;;;;;48.03;31.15;;;12.90;96.70;;;;;;4922135;29;20067;-88
2022/05/03 04:50:27;;;;;;;44.53;27.23;;;13.10;96.70;;;;;;4916105;29;20746;-88
2022/05/03 04:52:57;;;;;;;41.67;25.55;;;13.20;96.70;;;;;;4925073;29;20035;-88
2022/05/03 04:55:25;;;;;;;38.33;23.50;;;13.20;96.70;;;;;;4915956;29;20044;-87
2022/05/03 04:57:54;;;;;;;28.38;18.73;;;13.20;96.70;;;;;;4926053;29;20046;-88
2022/05/03 05:00:36;;;;;;;26.92;17.02;;;13.30;96.70;;;;;;4938736;29;20047;-88
2022/05/03 05:03:13;;;;;;;29.13;17.63;;;13.30;96.70;;;;;;4930550;29;20564;-88
2022/05/03 05:05:42;;;;;;;19.83;14.60;;;13.40;96.70;;;;;;4922485;29;20122;-88
2022/05/03 05:08:10;;;;;;;20.38;14.30;;;13.40;96.70;;;;;;4916779;29;20044;-87
2022/05/03 05:10:38;;;;;;;18.83;13.75;;;13.40;96.70;;;;;;4917172;29;20110;-87
2022/05/03 05:13:06;;;;;;;16.67;13.18;;;13.50;96.70;;;;;;4934756;29;20046;-89
2022/05/03 05:15:39;;;;;;;19.73;14.25;;;13.50;96.70;;;;;;4936867;29;20054;-89
2022/05/03 05:18:08;;;;;;;21.38;13.90;;;13.40;96.70;;;;;;4917319;29;20051;-89
2022/05/03 05:20:36;;;;;;;17.08;11.07;;;13.40;96.70;;;;;;4923480;29;20047;-88
2022/05/03 05:23:06;;;;;;;12.07;8.70;;;13.40;96.70;;;;;;4918478;29;20066;-87
2022/05/03 05:25:49;;;;;;;9.30;7.32;;;13.50;96.70;;;;;;4953468;29;20039;-89
2022/05/03 05:28:19;;;;;;;13.73;9.35;;;13.50;96.70;;;;;;4953450;28;20129;-89
2022/05/03 05:30:54;;;;;;;17.05;10.07;;;13.50;96.70;;;;;;4929774;29;20142;-90
2022/05/03 05:33:23;;;;;;;20.20;11.30;;;13.60;96.70;;;;;;4922932;29;20064;-89
2022/05/03 05:35:52;;;;;;;21.00;12.70;;;13.60;96.70;;;;;;4919885;29;20075;-88
2022/05/03 05:38:20;;;;;;;21.70;13.13;;;13.60;96.70;;;;;;4932792;29;20060;-88
2022/05/03 05:40:49;;;;;;;24.40;14.32;;;13.60;96.70;;;;;;4893309;29;20050;-88
2022/05/03 05:43:17;;;;;;;24.45;14.25;;;13.70;96.70;;;;;;4950682;28;20047;-87
2022/05/03 05:45:46;;;;;;;32.08;16.15;;;13.70;96.70;;;;;;4930573;29;20098;-89
2022/05/03 05:48:15;;;;;;;25.50;15.70;;;13.80;96.70;;;;;;4924320;29;20056;-88
2022/05/03 05:50:44;;;;;;;30.63;14.68;;;13.70;96.70;;;;;;4924618;29;20083;-88
2022/05/03 05:55:59;;;;;;;33.10;13.15;;;13.90;96.70;;;;;;4920619;29;20051;-87
2022/05/03 05:58:27;;;;;;;21.33;12.40;;;14.00;96.70;;;;;;4943700;29;20043;-87
2022/05/03 06:00:56;;;;;;;21.80;11.88;;;14.00;96.70;;;;;;4920037;29;20058;-87
2022/05/03 06:03:28;;;;;;;17.63;11.60;;;14.00;96.70;;;;;;4934509;29;20051;-88
2022/05/03 06:05:56;;;;;;;19.83;10.55;;;14.00;96.70;;;;;;4936365;29;20055;-88
2022/05/03 06:08:25;;;;;;;17.45;11.77;;;14.10;96.70;;;;;;4924668;29;20078;-87
2022/05/03 06:10:57;;;;;;;19.00;11.25;;;14.10;96.70;;;;;;4927235;29;20070;-88
2022/05/03 06:13:26;;;;;;;15.95;10.75;;;14.10;96.70;;;;;;4932189;29;20102;-87
2022/05/03 06:15:54;;;;;;;17.42;11.27;;;14.20;96.70;;;;;;4934977;29;20055;-87
2022/05/03 06:18:22;;;;;;;17.40;10.77;;;14.30;96.70;;;;;;4934224;29;20047;-88
2022/05/03 06:20:52;;;;;;;15.00;9.77;;;14.30;96.70;;;;;;4928276;29;20047;-87
2022/05/03 06:23:20;;;;;;;13.98;7.75;;;14.40;96.70;;;;;;4915048;29;20062;-88
2022/05/03 06:25:48;;;;;;;12.38;9.15;;;14.50;96.70;;;;;;4932455;29;20103;-89
2022/05/03 06:28:16;;;;;;;15.23;9.20;;;14.40;96.70;;;;;;4927762;29;20082;-89
2022/05/03 06:30:44;;;;;;;13.07;9.20;;;14.60;96.70;;;;;;4939332;29;20102;-85
2022/05/03 06:33:12;;;;;;;14.15;9.25;;;14.70;96.70;;;;;;4945541;28;20039;-89
2022/05/03 06:35:41;;;;;;;13.70;9.18;;;14.70;96.70;;;;;;4940907;29;20130;-88
2022/05/03 06:38:10;;;;;;;11.65;8.75;;;14.40;96.70;;;;;;4934086;28;20569;-87
2022/05/03 06:40:38;;;;;;;12.30;8.70;;;14.50;96.70;;;;;;4905754;29;20048;-90
2022/05/03 06:43:06;;;;;;;12.27;8.00;;;14.60;96.70;;;;;;4907363;29;20066;-88
2022/05/03 06:45:34;;;;;;;11.50;8.15;;;14.80;96.70;;;;;;4898415;29;20047;-83
2022/05/03 06:48:12;;;;;;;10.48;8.13;;;14.70;96.70;;;;;;4897347;29;20059;-87
2022/05/03 06:50:40;;;;;;;10.88;8.30;;;14.60;96.70;;;;;;4905524;29;20058;-87
2022/05/03 06:53:10;;;;;;;10.88;8.13;;;14.60;96.70;;;;;;4896078;29;20067;-88
2022/05/03 06:55:37;;;;;;;9.55;7.80;;;14.60;96.70;;;;;;4901211;29;20044;-86
2022/05/03 06:58:05;;;;;;;12.88;8.52;;;14.70;96.70;;;;;;4908896;29;20043;-85
2022/05/03 07:00:33;;;;;;;9.10;7.35;;;14.80;96.70;;;;;;4910609;29;20056;-85
2022/05/03 07:03:01;;;;;;;11.40;8.98;;;14.90;96.70;;;;;;4914807;29;20040;-85
2022/05/03 07:05:29;;;;;;;9.27;7.30;;;14.90;96.70;;;;;;4911505;29;20055;-83
2022/05/03 07:07:57;;;;;;;12.35;9.10;;;14.80;96.70;;;;;;4895745;29;20047;-84
2022/05/03 07:10:27;;;;;;;13.77;8.85;;;14.90;96.70;;;;;;4917455;29;20055;-84
2022/05/03 07:12:55;;;;;;;12.18;9.00;;;14.80;96.70;;;;;;4911699;29;20130;-81
2022/05/03 07:15:24;;;;;;;14.05;9.25;;;14.80;96.70;;;;;;4902585;29;20104;-85
2022/05/03 07:23:26;;;;;;;;;;;15.10;96.70;;;;;;4919641;29;20135;-84
2022/05/03 07:25:55;;;;;;;13.23;9.55;;;15.20;96.70;;;;;;4894807;29;19934;-84
2022/05/03 07:28:23;;;;;;;15.82;10.98;;;15.20;96.70;;;;;;4903985;29;20419;-85
2022/05/03 07:30:51;;;;;;;12.23;9.73;;;15.30;96.70;;;;;;4902332;29;20044;-85
2022/05/03 07:33:20;;;;;;;12.30;10.23;;;15.30;96.70;;;;;;4921748;29;20043;-86
2022/05/03 07:35:48;;;;;;;13.00;9.30;;;15.50;96.70;;;;;;4924340;29;20044;-85
2022/05/03 07:38:17;;;;;;;14.10;10.45;;;15.70;96.70;;;;;;4921594;29;20051;-84
2022/05/03 07:40:45;;;;;;;10.20;9.05;;;15.70;96.70;;;;;;4921902;29;20123;-84
2022/05/03 07:43:15;;;;;;;12.55;9.25;;;15.90;96.70;;;;;;4911378;29;20048;-86
2022/05/03 07:45:43;;;;;;;14.20;9.00;;;15.90;96.70;;;;;;4929382;29;20047;-86
2022/05/03 07:48:11;;;;;;;11.00;8.43;;;16.10;96.70;;;;;;4924068;29;20378;-86
2022/05/03 07:50:39;;;;;;;11.38;8.65;;;16.10;96.70;;;;;;4921993;29;20071;-88
2022/05/03 07:53:07;;;;;;;10.98;8.48;;;16.20;96.70;;;;;;4928000;29;20457;-89
2022/05/03 07:55:35;;;;;;;9.90;8.00;;;16.30;96.70;;;;;;4922185;29;20047;-90
2022/05/03 07:58:03;;;;;;;9.27;7.90;;;16.30;96.70;;;;;;4918674;29;20054;-88
2022/05/03 08:00:33;;;;;;;8.32;7.55;;;16.40;96.70;;;;;;4944296;28;20055;-88
2022/05/03 08:03:01;;;;;;;8.77;7.55;;;16.50;96.70;;;;;;4923461;29;20044;-88
2022/05/03 08:05:29;;;;;;;9.63;7.72;;;16.50;96.70;;;;;;4924143;29;20098;-88
2022/05/03 08:07:57;;;;;;;8.68;7.75;;;16.50;96.70;;;;;;4925448;29;20142;-88
2022/05/03 08:10:26;;;;;;;9.00;7.35;;;16.50;96.70;;;;;;4915322;29;20051;-88
2022/05/03 08:12:54;;;;;;;8.13;7.32;;;16.50;96.70;;;;;;4922260;29;20043;-91
2022/05/03 08:15:22;;;;;;;7.80;7.00;;;16.50;96.70;;;;;;4911453;29;20051;-89
2022/05/03 08:17:51;;;;;;;9.77;7.75;;;16.70;96.70;;;;;;4936187;28;20044;-89
2022/05/03 08:20:20;;;;;;;18.45;8.82;;;16.70;96.70;;;;;;4914656;29;20048;-88
2022/05/03 08:22:48;;;;;;;10.20;7.32;;;16.80;96.70;;;;;;4928988;29;20048;-92
2022/05/03 08:25:16;;;;;;;7.82;6.85;;;16.90;96.70;;;;;;4933408;29;20048;-89
2022/05/03 08:27:44;;;;;;;7.65;6.95;;;17.00;96.70;;;;;;4930031;29;20553;-88
2022/05/03 08:30:13;;;;;;;10.15;7.45;;;17.10;96.70;;;;;;4913934;29;20086;-87
2022/05/03 08:32:42;;;;;;;7.05;5.85;;;17.30;96.70;;;;;;4929806;29;20595;-88
2022/05/03 08:35:12;;;;;;;7.20;6.25;;;17.30;96.70;;;;;;4930344;29;20047;-88
2022/05/03 08:43:14;;;;;;;7.43;6.70;;;17.60;96.70;;;;;;4910507;29;20052;-89
2022/05/03 08:45:47;;;;;;;7.43;6.72;;;17.60;96.70;;;;;;4920016;29;20485;-88
2022/05/03 08:48:17;;;;;;;6.50;5.90;;;17.70;96.70;;;;;;4909801;29;20406;-89
2022/05/03 08:50:47;;;;;;;9.07;6.88;;;17.80;96.70;;;;;;4904077;29;20075;-89
2022/05/03 08:53:19;;;;;;;10.18;7.22;;;17.90;96.70;;;;;;4902415;29;20043;-88
2022/05/03 08:55:50;;;;;;;7.70;6.93;;;18.00;96.70;;;;;;4904616;29;20055;-89
2022/05/03 08:58:19;;;;;;;9.57;6.90;;;18.20;96.70;;;;;;4897798;29;20048;-89
2022/05/03 09:00:47;;;;;;;8.05;6.50;;;18.30;96.70;;;;;;4898458;29;20051;-88
2022/05/03 09:03:15;;;;;;;8.00;7.20;;;18.40;96.70;;;;;;4900215;29;20058;-88
2022/05/03 09:05:48;;;;;;;13.18;7.70;;;18.40;96.70;;;;;;4907966;29;20103;-88
2022/05/03 09:08:23;;;;;;;9.10;6.65;;;18.50;96.70;;;;;;4925164;29;20066;-87
2022/05/03 09:10:53;;;;;;;6.22;5.38;;;18.60;96.70;;;;;;4905278;29;20139;-88
2022/05/03 09:13:42;;;;;;;8.07;6.35;;;18.70;96.70;;;;;;4907056;29;20048;-85
2022/05/03 09:16:11;;;;;;;6.20;5.57;;;18.60;96.70;;;;;;4897384;29;20051;-88
2022/05/03 09:18:41;;;;;;;8.27;5.53;;;18.70;96.70;;;;;;4900238;29;20051;-88
2022/05/03 09:24:12;;;;;;;8.90;6.47;;;19.10;96.70;;;;;;4906747;29;20098;-88
2022/05/03 09:26:40;;;;;;;6.63;5.60;;;19.30;96.70;;;;;;4914153;29;20704;-89
2022/05/03 09:29:10;;;;;;;8.25;6.07;;;19.40;96.70;;;;;;4909155;29;20066;-90
2022/05/03 09:31:42;;;;;;;8.05;5.97;;;19.50;96.70;;;;;;4923119;29;20048;-89
2022/05/03 09:34:33;;;;;;;6.65;5.95;;;19.50;96.70;;;;;;4903240;29;20055;-89
2022/05/03 09:37:06;;;;;;;9.35;5.88;;;19.50;96.70;;;;;;4918939;29;20055;-87
2022/05/03 09:39:41;;;;;;;8.60;6.57;;;19.80;96.70;;;;;;4949656;29;20055;-88
2022/05/03 09:42:14;;;;;;;6.13;5.43;;;20.00;96.70;;;;;;4935103;29;20536;-88
2022/05/03 09:44:52;;;;;;;6.15;5.55;;;20.10;96.70;;;;;;4946018;28;20051;-86
2022/05/03 09:47:22;;;;;;;6.47;5.55;;;20.10;96.70;;;;;;4931318;29;20051;-86
2022/05/03 09:49:51;;;;;;;7.18;5.55;;;20.30;96.70;;;;;;4915642;29;20052;-86
2022/05/03 09:52:30;;;;;;;4.63;4.20;;;20.40;96.70;;;;;;4938756;28;20102;-90
2022/05/03 09:55:03;;;;;;;5.40;3.95;;;20.50;96.70;;;;;;4923773;29;20036;-85
2022/05/03 09:57:35;;;;;;;6.25;4.32;;;20.60;96.70;;;;;;4930477;29;20057;-84
2022/05/03 10:00:06;;;;;;;5.15;4.65;;;20.70;96.70;;;;;;4916312;29;20043;-84
2022/05/03 10:02:42;;;;;;;7.55;5.00;;;20.80;96.70;;;;;;4889337;29;20055;-86
2022/05/03 10:05:16;;;;;;;4.65;4.25;;;20.80;96.70;;;;;;4926914;29;20042;-85
2022/05/03 10:07:48;;;;;;;6.72;5.00;;;20.60;96.70;;;;;;4923275;29;20036;-86
2022/05/03 10:10:16;;;;;;;4.78;4.28;;;20.50;96.70;;;;;;4938020;29;20123;-87
2022/05/03 10:12:46;;;;;;;5.53;4.55;;;20.70;96.70;;;;;;4925636;29;20047;-87
2022/05/03 10:20:35;;;;;;;6.88;4.47;;;20.60;96.70;;;;;;4929423;29;20069;-88
2022/05/03 10:21:02;;;;;;;5.45;4.30;;;21.10;96.70;;;;;;4947406;29;20121;-87
2022/05/03 10:23:34;;;;;;;7.10;4.38;;;21.40;96.70;;;;;;4922455;29;20056;-86
2022/05/03 10:26:05;;;;;;;6.28;4.40;;;21.60;96.70;;;;;;4913887;29;20052;-87
2022/05/03 10:29:08;;;;;;;5.57;4.10;;;21.70;96.70;;;;;;4911146;29;20078;-87
2022/05/03 10:31:55;;;;;;;5.07;4.20;;;21.60;96.70;;;;;;4930063;29;20484;-88
2022/05/03 10:34:42;;;;;;;;;;;21.80;96.70;;;;;;4928320;29;20080;-92
2022/05/03 10:37:11;;;;;;;5.20;4.45;;;22.10;96.70;;;;;;4923633;29;19926;-88
2022/05/03 10:39:51;;;;;;;4.80;4.25;;;22.40;96.70;;;;;;4899184;29;20060;-88
2022/05/03 10:42:23;;;;;;;7.30;4.40;;;22.60;96.70;;;;;;4898681;29;20056;-88
2022/05/03 10:45:00;;;;;;;4.93;4.32;;;22.20;96.70;;;;;;4911590;29;20126;-87
2022/05/03 10:47:48;;;;;;;4.72;4.22;;;22.40;96.70;;;;;;4904698;29;20058;-86
2022/05/03 10:50:26;;;;;;;4.00;3.60;;;22.80;96.70;;;;;;4906260;29;20071;-88
2022/05/03 10:53:22;;;;;;;4.85;4.30;;;22.90;96.70;;;;;;4912999;29;20048;-87
2022/05/03 10:56:21;;;;;;;4.97;4.22;;;23.00;96.70;;;;;;4928742;29;20126;-91
2022/05/03 10:59:12;;;;;;;5.03;4.45;;;23.00;96.70;;;;;;4901690;29;20052;-93
2022/05/03 11:02:07;;;;;;;5.25;4.22;;;23.20;96.70;;;;;;4902886;29;20100;-93
2022/05/03 11:04:50;;;;;;;4.95;4.30;;;23.30;96.70;;;;;;4916049;29;20060;-88
2022/05/03 11:07:23;;;;;;;5.35;4.32;;;23.30;96.20;;;;;;4935522;29;20135;-89
2022/05/03 11:09:51;;;;;;;4.75;4.00;;;23.40;95.30;;;;;;4922223;29;20088;-88
2022/05/03 11:12:48;;;;;;;4.32;3.92;;;23.50;93.90;;;;;;4924803;29;20044;-90
2022/05/03 11:15:17;;;;;;;5.18;4.68;;;23.50;94.30;;;;;;4929883;29;20051;-87
2022/05/03 11:17:45;;;;;;;5.00;3.72;;;23.70;95.40;;;;;;4903704;29;20514;-92
2022/05/03 11:20:20;;;;;;;5.43;3.90;;;23.90;94.00;;;;;;4911597;29;20080;-91
2022/05/03 11:22:49;;;;;;;4.20;3.80;;;24.10;93.90;;;;;;4905274;29;20051;-90
2022/05/03 11:25:18;;;;;;;4.95;4.20;;;24.30;92.30;;;;;;4908025;29;20040;-91
2022/05/03 11:27:49;;;;;;;4.45;4.05;;;24.30;92.70;;;;;;4914609;29;20036;-92
2022/05/03 11:30:17;;;;;;;4.60;4.10;;;24.00;91.80;;;;;;4913072;29;20117;-93
2022/05/03 11:32:45;;;;;;;5.82;4.38;;;23.90;92.40;;;;;;4897553;29;20079;-87
2022/05/03 11:35:15;;;;;;;4.68;3.90;;;23.50;92.70;;;;;;4915855;29;20144;-86
2022/05/03 11:37:49;;;;;;;6.80;4.45;;;23.30;94.30;;;;;;4921273;29;21000;-84
2022/05/03 11:40:20;;;;;;;4.60;4.10;;;23.40;94.90;;;;;;4903676;29;20056;-88
2022/05/03 11:42:50;;;;;;;5.85;4.15;;;23.40;94.70;;;;;;4913052;29;20047;-89
2022/05/03 11:45:19;;;;;;;5.53;3.95;;;23.40;95.00;;;;;;4894936;29;20162;-87
2022/05/03 11:47:49;;;;;;;4.22;3.83;;;23.40;94.20;;;;;;4893995;29;20041;-89
2022/05/03 11:56:04;;;;;;;5.18;3.63;;;23.90;93.30;;;;;;4896417;29;20119;-88
2022/05/03 11:58:36;;;;;;;4.50;4.10;;;24.00;93.10;;;;;;4897080;29;20430;-89
2022/05/03 12:01:12;;;;;;;4.63;4.22;;;24.10;92.40;;;;;;4897175;29;20058;-90
2022/05/03 12:03:48;;;;;;;3.73;3.43;;;24.30;92.40;;;;;;4914233;29;20055;-88
2022/05/03 12:06:17;;;;;;;4.72;4.28;;;24.50;92.30;;;;;;4914112;29;20379;-88
2022/05/03 12:08:47;;;;;;;4.38;3.97;;;24.80;91.50;;;;;;4913047;29;20147;-89
2022/05/03 12:11:20;;;;;;;4.38;3.92;;;25.10;92.60;;;;;;4921663;29;20074;-88
2022/05/03 12:13:50;;;;;;;4.43;4.03;;;24.60;90.60;;;;;;4919679;29;20805;-89
2022/05/03 12:16:22;;;;;;;4.35;3.95;;;24.60;91.60;;;;;;4896164;29;20052;-87
2022/05/03 12:18:53;;;;;;;4.78;3.67;;;24.80;91.00;;;;;;4902917;29;20106;-88
2022/05/03 12:21:26;;;;;;;4.38;3.97;;;24.40;90.50;;;;;;4901675;29;20071;-88
2022/05/03 12:24:00;;;;;;;5.47;4.20;;;24.60;91.90;;;;;;4900049;29;20048;-88
2022/05/03 12:26:35;;;;;;;5.50;4.10;;;25.00;91.70;;;;;;4902150;29;20052;-88
2022/05/03 12:29:07;;;;;;;5.18;4.10;;;25.40;90.50;;;;;;4904820;29;20504;-88
2022/05/03 12:31:37;;;;;;;3.92;3.42;;;25.80;90.70;;;;;;4902157;29;20055;-87
2022/05/03 12:34:08;;;;;;;4.03;3.63;;;25.70;88.40;;;;;;4916887;29;20032;-87
2022/05/03 12:36:38;;;;;;;5.00;4.00;;;25.70;88.80;;;;;;4905978;29;20059;-88
2022/05/03 12:39:12;;;;;;;4.47;4.07;;;25.70;89.20;;;;;;4901615;29;20082;-88
2022/05/03 12:41:55;;;;;;;3.80;3.50;;;25.60;88.80;;;;;;4907084;29;20076;-88
2022/05/03 12:44:25;;;;;;;4.28;3.88;;;25.70;87.70;;;;;;4900872;29;20056;-88
2022/05/03 12:47:03;;;;;;;4.80;3.85;;;25.70;87.30;;;;;;4904582;29;20060;-87
2022/05/03 12:49:32;;;;;;;4.03;3.63;;;25.90;88.20;;;;;;4908781;29;20111;-87
2022/05/03 12:52:01;;;;;;;3.70;3.25;;;26.00;87.20;;;;;;4899311;29;20056;-87
2022/05/03 12:54:32;;;;;;;6.97;4.00;;;26.20;86.60;;;;;;4917557;29;20044;-85
2022/05/03 12:59:49;;;;;;;4.43;3.42;;;26.10;86.50;;;;;;4918558;29;20079;-88
2022/05/03 13:02:19;;;;;;;4.13;3.55;;;26.10;87.00;;;;;;4902971;29;20833;-88
2022/05/03 13:04:48;;;;;;;3.90;3.42;;;26.10;86.00;;;;;;4904273;29;20130;-87
2022/05/03 13:07:16;;;;;;;3.70;3.17;;;26.10;85.40;;;;;;4925557;29;20176;-87
2022/05/03 13:09:45;;;;;;;4.05;3.65;;;26.10;85.60;;;;;;4917916;29;20052;-86
2022/05/03 13:12:13;;;;;;;4.50;3.42;;;26.10;84.50;;;;;;4911760;29;20131;-87
2022/05/03 13:14:42;;;;;;;3.90;3.50;;;25.90;85.20;;;;;;4906386;29;20550;-88
2022/05/03 13:17:13;;;;;;;3.85;3.45;;;25.90;86.40;;;;;;4903724;29;20047;-88
2022/05/03 13:19:41;;;;;;;4.78;3.42;;;25.80;85.90;;;;;;4898376;29;20099;-88
2022/05/03 13:22:10;;;;;;;4.80;3.50;;;25.80;86.10;;;;;;4910719;29;20072;-88
2022/05/03 13:24:38;;;;;;;5.88;4.18;;;26.10;85.20;;;;;;4930240;29;20067;-88
2022/05/03 13:27:06;;;;;;;5.05;4.55;;;26.40;87.40;;;;;;4905214;29;20126;-88
2022/05/03 13:29:35;;;;;;;5.28;4.70;;;26.10;93.50;;;;;;4925684;29;20131;-88
2022/05/03 13:32:03;;;;;;;7.05;6.32;;;25.70;94.20;;;;;;4907766;29;20056;-88
2022/05/03 13:34:33;;;;;;;7.63;5.88;;;25.30;95.80;;;;;;4905113;29;20050;-88
2022/05/03 13:42:38;;;;;;;7.13;4.93;;;25.30;96.70;;;;;;4907792;29;20140;-87
2022/05/03 13:45:07;;;;;;;5.30;4.63;;;25.70;95.50;;;;;;4891365;29;20069;-87
2022/05/03 13:47:35;;;;;;;4.88;4.47;;;25.90;95.00;;;;;;4904099;29;20048;-87
2022/05/03 13:50:06;;;;;;;5.18;4.32;;;26.20;93.90;;;;;;4906508;29;20052;-87
2022/05/03 13:52:36;;;;;;;6.15;4.80;;;26.30;93.90;;;;;;4912362;29;20064;-88